Home   Weather   Germany   Neuss   Past weeks
Flag for Germany

Past Weather in Neuss, North Rhine-Westphalia, Germany — Yesterday and Last 2 Weeks

Currently: 70 °F. Clear. (Weather station: Duesseldorf, Germany). See more current weather

Past Weather in Neuss — Graph

°F

Neuss Temperature Yesterday

Maximum temperature yesterday: 81 °F (at 2:20 pm)
Minimum temperature yesterday: 55 °F (at 12:50 am)
Average temperature yesterday: 69 °F

High & Low Weather Summary for the Past Weeks

 TemperatureHumidityPressure
High81 °F (May 9, 2:20 pm)100% (May 1, 4:50 am)30.33 "Hg (May 1, 4:50 am)
Low32 °F (Apr 26, 2:50 am)23% (Apr 28, 4:20 pm)29.45 "Hg (May 4, 11:50 am)
Average50 °F63%29.86 "Hg
* Reported Apr 25 12:20 am — May 10 12:50 am, Neuss. Weather by CustomWeather, © 2021

Note: Actual official high and low records may vary slightly from our data, if they occured in-between our weather recording intervals... More about our weather records

Neuss Weather History for the Previous 24 Hours

Scroll right to see more
 ConditionsComfort  
Time TempWeatherWind HumidityBarometerVisibility
12:50 am
Mon, May 10
70 °FClear.10 mph46%29.56 "Hg10 mi
12:20 am70 °FClear.9 mph46%29.56 "Hg10 mi
11:50 pm
Sun, May 9
72 °FClear.12 mph44%29.56 "Hg10 mi
11:20 pm72 °FClear.9 mph44%29.56 "Hg10 mi
10:50 pm72 °FClear.10 mph44%29.56 "Hg10 mi
10:20 pm73 °FClear.16 mph41%29.56 "Hg10 mi
9:50 pm73 °FClear.15 mph41%29.56 "Hg10 mi
9:20 pm75 °FClear.14 mph41%29.53 "Hg10 mi
8:50 pm75 °FSunny.16 mph39%29.53 "Hg10 mi
8:20 pm77 °FSunny.18 mph39%29.53 "Hg10 mi
7:50 pm77 °FSunny.13 mph42%29.53 "Hg10 mi
7:20 pm79 °FSunny.16 mph39%29.53 "Hg10 mi
6:50 pm79 °FSunny.20 mph42%29.53 "Hg10 mi
6:20 pm81 °FSunny.17 mph39%29.53 "Hg10 mi
5:50 pm81 °FSunny.21 mph37%29.53 "Hg10 mi
5:20 pm81 °FSunny.20 mph39%29.53 "Hg10 mi
4:50 pm81 °FPassing clouds.18 mph39%29.53 "HgN/A
4:20 pm81 °FPassing clouds.16 mph39%29.56 "HgN/A
3:50 pm81 °FSunny.17 mph37%29.56 "Hg10 mi
3:20 pm81 °FSunny.22 mph37%29.59 "Hg10 mi
2:50 pm81 °FSunny.21 mph39%29.59 "Hg10 mi
2:20 pm81 °FSunny.18 mph42%29.59 "Hg10 mi
1:50 pm79 °FSunny.18 mph42%29.59 "Hg10 mi
1:20 pm77 °FPassing clouds.22 mph42%29.59 "HgN/A
12:50 pm77 °FPassing clouds.22 mph44%29.59 "HgN/A
12:20 pm75 °FSunny.20 mph47%29.59 "Hg10 mi
11:50 am73 °FPassing clouds.17 mph47%29.59 "HgN/A
11:20 am72 °FSunny.21 mph50%29.62 "Hg10 mi
10:50 am70 °FSunny.21 mph53%29.62 "Hg10 mi
10:20 am70 °FPassing clouds.21 mph53%29.65 "HgN/A
9:50 am68 °FPassing clouds.17 mph53%29.68 "HgN/A
9:20 am64 °FPassing clouds.18 mph56%29.68 "HgN/A
8:50 am63 °FPassing clouds.17 mph59%29.68 "HgN/A
8:20 am61 °FSunny.15 mph63%29.68 "Hg10 mi
7:50 am59 °FSunny.16 mph68%29.68 "Hg10 mi
7:20 am57 °FSunny.15 mph67%29.71 "Hg10 mi
6:50 am57 °FSunny.16 mph67%29.71 "Hg10 mi
6:20 am55 °FSunny.15 mph72%29.71 "Hg10 mi
5:50 am55 °FClear.14 mph72%29.71 "Hg10 mi
5:20 am55 °FClear.15 mph72%29.71 "Hg10 mi
4:50 am55 °FClear.16 mph72%29.71 "Hg10 mi
4:20 am55 °FClear.15 mph67%29.74 "Hg10 mi
3:50 am55 °FClear.16 mph72%29.74 "Hg10 mi
3:20 am55 °FClear.14 mph72%29.74 "Hg10 mi
2:50 am55 °FClear.13 mph72%29.77 "Hg10 mi
2:20 am55 °FClear.12 mph72%29.77 "Hg10 mi
1:50 am55 °FClear.10 mph72%29.77 "Hg10 mi
1:20 am55 °FClear.10 mph77%29.77 "Hg10 mi
Weather by CustomWeather, © 2021

See weather overview